Time;durP1;ratioP1;P1;durP2;ratioP2;P2;SDS_P1;SDS_P2;PMS_P1;PMS_P2;Temp;Humidity;BMP_temperature;BMP_pressure;BME280_temperature;BME280_humidity;BME280_pressure;Samples;Min_cycle;Max_cycle;Signal;HPM_P1;HPM_P2
2021/12/01 00:00:26;;;;;;;1.35;1.17;;;;;;;-0.64;80.78;96426.09;4963333;28;20039;-57
2021/12/01 00:03:12;;;;;;;1.75;1.10;;;;;;;-0.75;79.92;96428.97;4961740;29;20287;-58
2021/12/01 00:05:58;;;;;;;1.27;1.17;;;;;;;-0.61;80.86;96452.25;4961405;29;20279;-57
2021/12/01 00:08:44;;;;;;;2.42;1.60;;;;;;;-0.60;81.81;96443.75;4962381;29;20026;-57
2021/12/01 00:11:30;;;;;;;2.35;1.40;;;;;;;-0.68;80.92;96439.75;4962032;29;20035;-56
2021/12/01 00:14:16;;;;;;;2.08;1.55;;;;;;;-0.64;80.92;96442.19;4946504;28;20028;-56
2021/12/01 00:17:03;;;;;;;2.20;1.50;;;;;;;-0.70;81.33;96448.28;4945047;29;20043;-57
2021/12/01 00:19:49;;;;;;;1.77;1.50;;;;;;;-0.79;83.08;96453.59;4961208;28;20050;-58
2021/12/01 00:22:35;;;;;;;5.35;1.70;;;;;;;-0.98;83.06;96450.78;4947002;29;20282;-58
2021/12/01 00:25:26;;;;;;;3.00;1.60;;;;;;;-0.77;84.88;96456.09;4955700;29;20094;-58
2021/12/01 00:28:12;;;;;;;2.38;1.48;;;;;;;-0.84;84.32;96450.38;4961063;29;20086;-58
2021/12/01 00:30:59;;;;;;;1.75;1.55;;;;;;;-0.99;84.97;96460.97;4960618;29;20291;-57
2021/12/01 00:33:45;;;;;;;2.30;1.30;;;;;;;-0.97;85.25;96460.06;4960926;29;20158;-57
2021/12/01 00:36:31;;;;;;;1.90;1.50;;;;;;;-0.89;85.49;96478.44;4956627;29;20348;-57
2021/12/01 00:39:17;;;;;;;1.88;1.30;;;;;;;-0.95;85.06;96472.72;4952289;29;20038;-58
2021/12/01 00:42:03;;;;;;;1.48;1.17;;;;;;;-0.98;86.53;96468.53;4961199;29;20055;-57
2021/12/01 00:45:00;;;;;;;1.17;1.08;;;;;;;-0.98;85.88;96478.72;4959975;29;20094;-57
2021/12/01 00:47:49;;;;;;;1.35;1.25;;;;;;;-0.90;85.65;96473.41;4953154;29;20657;-58
2021/12/01 00:50:35;;;;;;;1.50;1.40;;;;;;;-0.96;85.54;96484.56;4953085;29;20078;-57
2021/12/01 00:53:21;;;;;;;1.67;1.20;;;;;;;-0.98;85.33;96482.94;4953116;29;20038;-58
2021/12/01 00:56:07;;;;;;;1.70;1.20;;;;;;;-1.06;85.15;96473.00;4944532;29;20043;-58
2021/12/01 00:58:53;;;;;;;1.55;1.10;;;;;;;-1.07;84.34;96478.94;4955903;29;20055;-58
2021/12/01 01:01:39;;;;;;;5.85;1.00;;;;;;;-1.14;83.50;96482.53;4960359;29;20070;-58
2021/12/01 01:04:25;;;;;;;2.33;1.20;;;;;;;-0.99;84.39;96477.03;4960382;29;20027;-57
2021/12/01 01:07:11;;;;;;;1.42;1.00;;;;;;;-1.08;84.55;96477.31;4961449;29;20035;-58
2021/12/01 01:10:04;;;;;;;1.95;1.20;;;;;;;-1.05;83.34;96482.28;4961641;29;20042;-58
2021/12/01 01:19:05;;;;;;;2.97;0.90;;;;;;;-1.61;83.33;96420.31;4944922;29;20275;-57
2021/12/01 01:21:52;;;;;;;1.77;1.23;;;;;;;-1.18;84.18;96491.09;4945978;28;20066;-59
2021/12/01 01:24:38;;;;;;;2.53;1.10;;;;;;;-1.07;85.53;96484.88;4945565;29;20020;-58
2021/12/01 01:27:24;;;;;;;1.30;1.20;;;;;;;-1.00;86.06;96497.41;4945808;29;20031;-58
2021/12/01 01:30:10;;;;;;;1.38;1.15;;;;;;;-1.24;83.89;96472.63;4960562;29;20034;-58
2021/12/01 01:32:57;;;;;;;1.90;1.52;;;;;;;-1.01;84.50;96488.97;4963977;29;20537;-58
2021/12/01 01:35:43;;;;;;;1.73;1.33;;;;;;;-0.95;84.98;96493.03;4963031;29;20332;-58
2021/12/01 01:38:31;;;;;;;2.30;1.60;;;;;;;-0.93;84.18;96487.00;4960898;29;20036;-57
2021/12/01 01:41:18;;;;;;;3.00;1.60;;;;;;;-0.91;85.21;96499.69;4953257;28;20055;-58
2021/12/01 01:44:04;;;;;;;2.88;1.30;;;;;;;-0.90;84.08;96493.72;4964953;29;20040;-58
2021/12/01 01:46:50;;;;;;;2.08;1.42;;;;;;;-0.94;84.01;96495.53;4963098;29;20224;-57
2021/12/01 01:49:59;;;;;;;1.80;1.40;;;;;;;-1.01;82.71;96496.56;4965143;29;20035;-57
2021/12/01 01:52:45;;;;;;;2.13;1.58;;;;;;;-0.95;83.44;96513.34;4963180;29;20041;-58
2021/12/01 01:55:32;;;;;;;1.70;1.20;;;;;;;-0.96;83.42;96504.06;4963528;29;20046;-59
2021/12/01 01:58:18;;;;;;;2.72;1.50;;;;;;;-1.03;83.35;96507.63;4952765;29;20024;-58
2021/12/01 02:01:09;;;;;;;2.13;1.40;;;;;;;-1.07;83.71;96547.50;4957978;29;20109;-58
2021/12/01 02:03:55;;;;;;;1.98;1.10;;;;;;;-1.11;83.72;96517.97;4962518;29;20039;-58
2021/12/01 02:06:43;;;;;;;1.40;1.25;;;;;;;-0.91;83.82;96509.84;4962961;29;20027;-57
2021/12/01 02:09:29;;;;;;;1.88;1.17;;;;;;;-1.02;82.98;96519.47;4960914;29;20031;-58
2021/12/01 02:12:15;;;;;;;2.17;1.17;;;;;;;-1.13;83.18;96515.50;4952218;29;20028;-58
2021/12/01 02:15:02;;;;;;;1.38;1.20;;;;;;;-1.15;84.04;96517.25;4973696;28;20124;-58
2021/12/01 02:17:49;;;;;;;2.47;1.33;;;;;;;-1.17;83.62;96524.06;4963553;29;20031;-58
2021/12/01 02:20:35;;;;;;;2.25;1.65;;;;;;;-1.10;84.42;96534.91;4963984;29;20030;-58
2021/12/01 02:23:21;;;;;;;3.83;1.52;;;;;;;-0.99;84.10;96527.81;4963497;29;20038;-58
2021/12/01 02:26:08;;;;;;;2.45;1.48;;;;;;;-0.87;84.65;96522.41;4963139;29;20062;-58
2021/12/01 02:28:58;;;;;;;1.95;1.50;;;;;;;-1.03;83.87;96487.31;4963865;29;20034;-57
2021/12/01 02:31:44;;;;;;;2.47;1.13;;;;;;;-0.98;83.30;96533.72;4964600;29;20339;-57
2021/12/01 02:34:34;;;;;;;1.60;1.27;;;;;;;-1.43;82.96;96476.53;4963463;29;20039;-57
2021/12/01 02:37:21;;;;;;;2.13;1.30;;;;;;;-1.02;83.95;96534.72;4950120;29;20086;-56
2021/12/01 02:40:08;;;;;;;2.13;1.38;;;;;;;-1.07;83.69;96530.59;4962203;29;20051;-58
2021/12/01 02:42:54;;;;;;;1.88;1.25;;;;;;;-0.98;83.68;96541.34;4962731;28;20031;-57
2021/12/01 02:45:41;;;;;;;2.65;1.50;;;;;;;-0.95;83.57;96543.81;4949582;29;20217;-57
2021/12/01 02:48:27;;;;;;;2.70;1.40;;;;;;;-0.97;83.40;96546.41;4961122;29;20196;-58
2021/12/01 02:51:14;;;;;;;2.05;1.23;;;;;;;-1.03;83.10;96548.28;4945489;29;20032;-57
2021/12/01 02:54:00;;;;;;;1.85;1.40;;;;;;;-1.18;83.17;96557.94;4949988;29;20102;-57
2021/12/01 02:56:49;;;;;;;1.80;1.40;;;;;;;-1.15;82.97;96555.34;4960455;29;20024;-57
2021/12/01 02:59:37;;;;;;;1.40;1.30;;;;;;;-1.08;83.41;96553.47;4961767;29;20023;-57
2021/12/01 03:02:23;;;;;;;1.60;1.38;;;;;;;-0.99;82.53;96553.22;4961352;29;20023;-57
2021/12/01 03:05:09;;;;;;;3.17;1.50;;;;;;;-0.98;82.67;96551.50;4961134;29;20278;-57
2021/12/01 03:07:56;;;;;;;1.70;1.20;;;;;;;-0.85;83.41;96559.66;4963411;29;20028;-57
2021/12/01 03:10:45;;;;;;;2.25;1.60;;;;;;;-1.31;82.30;96495.66;4962332;29;20091;-56
2021/12/01 03:13:31;;;;;;;1.50;1.40;;;;;;;-0.90;81.64;96554.69;4962158;29;20031;-56
2021/12/01 03:16:17;;;;;;;2.90;1.60;;;;;;;-0.90;82.42;96550.44;4962231;29;20351;-56
2021/12/01 03:19:03;;;;;;;2.25;1.20;;;;;;;-0.99;82.75;96549.84;4963375;29;20038;-56
2021/12/01 03:21:49;;;;;;;2.00;1.27;;;;;;;-1.10;82.19;96557.75;4960967;29;20026;-56
2021/12/01 03:24:35;;;;;;;5.43;1.38;;;;;;;-0.92;83.42;96559.81;4961249;29;20027;-57
2021/12/01 03:27:21;;;;;;;2.80;1.65;;;;;;;-0.99;82.03;96557.47;4961960;29;20053;-56
2021/12/01 03:30:09;;;;;;;2.35;1.45;;;;;;;-0.90;82.73;96565.69;4963339;29;20043;-56
2021/12/01 03:32:55;;;;;;;2.30;1.40;;;;;;;-1.01;82.47;96549.91;4961905;29;20027;-56
2021/12/01 03:35:44;;;;;;;3.60;1.52;;;;;;;-1.46;82.43;96507.06;4963320;29;20032;-57
2021/12/01 03:38:30;;;;;;;3.88;1.50;;;;;;;-1.24;82.79;96556.41;4962730;29;20043;-57
2021/12/01 03:41:16;;;;;;;3.33;1.55;;;;;;;-1.13;83.61;96565.44;4963679;28;20063;-57
2021/12/01 03:44:03;;;;;;;1.48;1.33;;;;;;;-1.30;82.05;96556.53;4963287;29;20232;-56
2021/12/01 03:46:49;;;;;;;1.75;1.30;;;;;;;-1.34;83.18;96543.97;4962977;29;20026;-56
2021/12/01 03:49:35;;;;;;;2.45;1.40;;;;;;;-1.26;82.12;96567.47;4959972;29;20332;-56
2021/12/01 03:52:23;;;;;;;2.05;1.50;;;;;;;-1.24;84.28;96566.56;4962585;29;20226;-57
2021/12/01 03:55:10;;;;;;;1.50;1.40;;;;;;;-1.05;84.00;96571.16;4962084;28;20102;-57
2021/12/01 03:57:56;;;;;;;1.48;1.30;;;;;;;-1.26;82.26;96559.84;4961746;29;20031;-57
2021/12/01 04:00:43;;;;;;;1.40;1.30;;;;;;;-1.07;83.57;96571.22;4962141;29;20039;-56
2021/12/01 04:03:28;;;;;;;3.28;1.40;;;;;;;-1.05;82.94;96574.53;4961902;29;20063;-57
2021/12/01 04:06:14;;;;;;;4.55;1.60;;;;;;;-1.05;82.86;96571.16;4960872;29;20067;-57
2021/12/01 04:09:02;;;;;;;4.13;1.70;;;;;;;-1.00;82.45;96571.03;4962002;29;20031;-57
2021/12/01 04:11:48;;;;;;;2.10;1.50;;;;;;;-1.29;82.25;96581.06;4961974;29;20023;-58
2021/12/01 04:14:37;;;;;;;2.55;1.50;;;;;;;-1.31;83.10;96567.59;4944347;29;20040;-56
2021/12/01 04:17:24;;;;;;;3.70;1.88;;;;;;;-1.37;82.87;96575.34;4945761;29;20034;-56
2021/12/01 04:20:12;;;;;;;2.58;1.42;;;;;;;-1.22;83.46;96586.81;4944860;29;20031;-57
2021/12/01 04:22:58;;;;;;;4.60;1.73;;;;;;;-1.11;83.24;96581.47;4961784;29;20035;-57
2021/12/01 04:25:45;;;;;;;1.50;1.40;;;;;;;-1.17;82.69;96574.84;4960733;29;20042;-57
2021/12/01 04:28:31;;;;;;;1.83;1.70;;;;;;;-0.98;83.38;96584.50;4961641;29;20236;-57
2021/12/01 04:31:17;;;;;;;1.88;1.60;;;;;;;-1.13;83.31;96585.75;4961424;29;20095;-57
2021/12/01 04:34:04;;;;;;;3.30;1.88;;;;;;;-1.15;83.83;96583.25;4961894;29;20224;-58
2021/12/01 04:36:51;;;;;;;3.53;2.15;;;;;;;-1.23;84.30;96583.47;4948055;29;20069;-57
2021/12/01 04:39:37;;;;;;;4.43;1.73;;;;;;;-1.35;84.66;96586.28;4960349;29;20140;-56
2021/12/01 04:42:23;;;;;;;2.80;1.70;;;;;;;-1.18;84.77;96574.88;4960732;29;20095;-55
2021/12/01 04:45:14;;;;;;;2.22;1.60;;;;;;;-1.40;83.97;96568.66;4959667;29;20027;-54
2021/12/01 04:48:00;;;;;;;2.33;1.70;;;;;;;-1.17;83.14;96590.06;4961705;29;20049;-55
2021/12/01 04:50:46;;;;;;;3.20;1.90;;;;;;;-1.05;83.88;96599.09;4961962;29;20030;-54
2021/12/01 04:53:32;;;;;;;4.28;2.08;;;;;;;-1.15;82.91;96592.59;4961476;29;20338;-58
2021/12/01 04:56:18;;;;;;;2.22;1.80;;;;;;;-1.29;83.36;96588.66;4961551;29;20027;-57
2021/12/01 04:59:05;;;;;;;3.20;2.33;;;;;;;-1.10;84.02;96606.00;4960972;29;20320;-57
2021/12/01 05:01:53;;;;;;;3.13;2.00;;;;;;;-1.16;83.68;96606.97;4954050;29;20027;-56
2021/12/01 05:04:41;;;;;;;3.15;2.05;;;;;;;-1.27;82.84;96599.63;4954102;29;20054;-56
2021/12/01 05:07:27;;;;;;;4.22;2.33;;;;;;;-1.41;83.33;96566.97;4959689;29;20074;-56
2021/12/01 05:10:13;;;;;;;5.50;2.60;;;;;;;-0.98;82.92;96623.47;4961649;28;20342;-57
2021/12/01 05:12:59;;;;;;;2.97;2.08;;;;;;;-0.96;82.90;96623.44;4959899;29;20102;-56
2021/12/01 05:15:45;;;;;;;2.47;2.00;;;;;;;-1.02;82.06;96628.66;4961137;29;20042;-56
2021/12/01 05:18:31;;;;;;;2.30;2.10;;;;;;;-1.14;81.60;96610.31;4962014;29;20023;-57
2021/12/01 05:21:18;;;;;;;4.18;2.30;;;;;;;-1.03;82.10;96627.00;4946159;29;20099;-57
2021/12/01 05:24:04;;;;;;;2.22;1.90;;;;;;;-1.03;82.29;96619.38;4958327;29;20320;-57
2021/12/01 05:26:50;;;;;;;3.40;2.20;;;;;;;-1.08;82.31;96634.72;4960604;29;20125;-57
2021/12/01 05:29:36;;;;;;;1.90;1.80;;;;;;;-1.02;82.63;96644.72;4959208;29;20038;-57
2021/12/01 05:32:22;;;;;;;2.50;2.05;;;;;;;-0.97;81.93;96648.00;4961020;29;20335;-56
2021/12/01 05:35:08;;;;;;;3.05;2.05;;;;;;;-1.00;81.78;96642.97;4943515;29;20229;-56
2021/12/01 05:37:54;;;;;;;3.90;2.13;;;;;;;-1.09;81.72;96661.81;4961319;29;20224;-56
2021/12/01 05:40:40;;;;;;;3.90;2.25;;;;;;;-1.19;81.18;96649.38;4945681;29;20116;-57
2021/12/01 05:43:26;;;;;;;2.85;2.05;;;;;;;-1.15;81.67;96663.69;4959449;29;20023;-56
2021/12/01 05:46:13;;;;;;;2.67;2.22;;;;;;;-1.03;82.32;96663.38;4944177;29;20086;-56
2021/12/01 05:48:58;;;;;;;3.28;2.63;;;;;;;-1.03;82.16;96657.47;4959324;28;20031;-56
2021/12/01 05:51:44;;;;;;;4.20;2.03;;;;;;;-0.98;81.65;96659.03;4943400;29;20106;-56
2021/12/01 05:54:30;;;;;;;5.75;2.83;;;;;;;-0.93;80.75;96667.34;4943055;29;20051;-57
2021/12/01 05:57:17;;;;;;;4.47;2.33;;;;;;;-0.97;81.62;96660.69;4943472;29;20032;-57
2021/12/01 06:00:06;;;;;;;4.35;2.45;;;;;;;-1.07;81.79;96649.94;4960499;29;20035;-55
2021/12/01 06:02:53;;;;;;;5.57;2.50;;;;;;;-0.99;81.02;96675.13;4961560;29;20042;-57
2021/12/01 06:05:39;;;;;;;7.45;2.47;;;;;;;-1.12;81.51;96679.66;4958696;29;20085;-57
2021/12/01 06:08:24;;;;;;;5.93;2.45;;;;;;;-1.04;80.11;96682.03;4943938;29;20047;-57
2021/12/01 06:11:10;;;;;;;6.32;3.00;;;;;;;-0.94;80.68;96688.56;4960333;29;20067;-57
2021/12/01 06:13:56;;;;;;;4.07;2.42;;;;;;;-1.05;81.43;96690.50;4957079;29;20028;-57
2021/12/01 06:16:43;;;;;;;3.38;2.38;;;;;;;-1.10;80.82;96690.63;4947023;28;20193;-56
2021/12/01 06:19:29;;;;;;;3.88;2.30;;;;;;;-1.05;81.40;96691.34;4962486;29;20026;-56
2021/12/01 06:22:15;;;;;;;3.45;2.15;;;;;;;-0.99;81.45;96692.06;4962296;29;20102;-56
2021/12/01 06:25:01;;;;;;;2.97;2.30;;;;;;;-1.10;80.91;96695.72;4961124;29;20031;-56
2021/12/01 06:27:47;;;;;;;4.95;2.65;;;;;;;-1.23;80.08;96690.09;4961850;29;20034;-57
2021/12/01 06:30:36;;;;;;;3.05;2.30;;;;;;;-1.22;82.01;96693.44;4962874;29;20034;-57
2021/12/01 06:33:22;;;;;;;3.42;2.25;;;;;;;-1.12;81.75;96707.59;4956427;29;20027;-57
2021/12/01 06:36:08;;;;;;;2.60;2.20;;;;;;;-1.11;80.30;96695.72;4953754;29;20098;-57
2021/12/01 06:38:54;;;;;;;4.40;2.65;;;;;;;-1.09;80.30;96701.63;4956545;29;20024;-58
2021/12/01 06:41:40;;;;;;;3.47;2.45;;;;;;;-1.14;80.31;96700.88;4955472;29;20031;-57
2021/12/01 06:44:30;;;;;;;3.50;2.38;;;;;;;-1.11;80.29;96710.94;4952606;28;20031;-57
2021/12/01 06:47:17;;;;;;;5.63;2.67;;;;;;;-1.28;81.26;96703.75;4959522;29;20035;-57
2021/12/01 06:50:04;;;;;;;3.00;2.60;;;;;;;-1.07;80.54;96713.41;4959191;28;20031;-57
2021/12/01 06:52:50;;;;;;;5.47;3.03;;;;;;;-1.13;79.89;96721.16;4957172;28;20089;-56
2021/12/01 06:55:36;;;;;;;4.78;2.65;;;;;;;-1.22;81.12;96724.72;4956547;28;20047;-57
2021/12/01 06:58:22;;;;;;;4.75;2.97;;;;;;;-1.00;80.85;96731.84;4948117;28;20023;-57
2021/12/01 07:01:09;;;;;;;5.18;2.47;;;;;;;-1.34;81.02;96732.66;4956335;28;20032;-56
2021/12/01 07:03:55;;;;;;;3.35;2.60;;;;;;;-1.10;81.85;96736.34;4961653;29;20064;-56
2021/12/01 07:06:41;;;;;;;6.63;2.53;;;;;;;-1.19;80.51;96743.31;4962855;29;20019;-56
2021/12/01 07:09:27;;;;;;;9.32;2.72;;;;;;;-1.05;82.35;96742.13;4946518;29;20345;-56
2021/12/01 07:12:13;;;;;;;4.70;2.20;;;;;;;-1.25;80.46;96747.66;4969826;28;20229;-55
2021/12/01 07:14:59;;;;;;;7.40;3.05;;;;;;;-1.10;80.32;96750.72;4946895;29;20116;-56
2021/12/01 07:17:45;;;;;;;4.97;2.72;;;;;;;-0.96;81.42;96761.38;4962117;29;20050;-56
2021/12/01 07:20:31;;;;;;;5.55;2.65;;;;;;;-0.91;82.01;96754.50;4962648;29;20297;-57
2021/12/01 07:23:17;;;;;;;5.22;2.58;;;;;;;-1.04;79.44;96748.06;4962534;29;20035;-57
2021/12/01 07:26:04;;;;;;;3.88;2.85;;;;;;;-0.95;80.31;96758.00;4949118;29;20028;-56
2021/12/01 07:28:49;;;;;;;5.03;3.00;;;;;;;-1.03;81.10;96774.28;4962026;28;20053;-56
2021/12/01 07:31:35;;;;;;;4.80;2.42;;;;;;;-0.95;79.90;96778.31;4963074;29;20131;-57
2021/12/01 07:34:21;;;;;;;4.80;2.75;;;;;;;-0.80;79.15;96774.56;4961230;29;20324;-57
2021/12/01 07:37:12;;;;;;;3.70;2.78;;;;;;;-0.87;80.76;96775.56;4945061;29;20040;-57
2021/12/01 07:39:58;;;;;;;5.68;3.03;;;;;;;-0.76;80.71;96783.78;4962840;28;20399;-57
2021/12/01 07:42:44;;;;;;;3.92;2.58;;;;;;;-0.92;80.46;96778.22;4949695;29;20080;-57
2021/12/01 07:45:30;;;;;;;3.20;2.50;;;;;;;-0.94;78.72;96795.22;4945857;29;20158;-56
2021/12/01 07:48:16;;;;;;;3.53;2.33;;;;;;;-0.90;79.54;96795.97;4960712;28;20383;-57
2021/12/01 07:51:03;;;;;;;3.50;2.50;;;;;;;-0.94;79.51;96795.22;4949092;29;20316;-57
2021/12/01 07:53:49;;;;;;;4.90;2.30;;;;;;;-1.00;79.26;96795.34;4961536;29;20197;-57
2021/12/01 07:56:35;;;;;;;3.60;2.55;;;;;;;-0.84;79.74;96803.47;4957630;28;20285;-57
2021/12/01 07:59:21;;;;;;;3.10;2.60;;;;;;;-0.85;79.94;96800.97;4952082;29;20030;-57
2021/12/01 08:02:07;;;;;;;4.07;2.30;;;;;;;-0.84;80.02;96800.94;4961027;29;20098;-56
2021/12/01 08:04:53;;;;;;;3.92;2.47;;;;;;;-0.81;79.61;96794.94;4960232;29;20031;-57
2021/12/01 08:07:40;;;;;;;3.42;2.40;;;;;;;-0.84;80.05;96789.91;4960371;29;20023;-56
2021/12/01 08:10:26;;;;;;;4.10;2.50;;;;;;;-0.65;79.89;96805.59;4960933;29;20026;-57
2021/12/01 08:13:12;;;;;;;2.67;2.35;;;;;;;-0.72;80.40;96810.78;4960336;29;20217;-57
2021/12/01 08:16:00;;;;;;;6.38;2.95;;;;;;;-0.80;80.53;96811.84;4953380;29;20034;-57
2021/12/01 08:18:51;;;;;;;3.50;2.40;;;;;;;-0.89;79.80;96823.06;4952393;29;20031;-56
2021/12/01 08:21:37;;;;;;;3.50;2.65;;;;;;;-0.67;81.13;96825.97;4945571;29;20112;-57
2021/12/01 08:24:23;;;;;;;3.15;2.67;;;;;;;-0.84;80.11;96813.63;4953582;29;20300;-56
2021/12/01 08:27:09;;;;;;;5.22;2.70;;;;;;;-0.84;80.02;96820.41;4953000;29;20031;-56
2021/12/01 08:29:55;;;;;;;5.22;2.70;;;;;;;-0.91;79.32;96820.56;4956232;29;20039;-56
2021/12/01 08:32:45;;;;;;;5.00;2.53;;;;;;;-0.95;80.73;96808.78;4950053;28;20253;-58
2021/12/01 08:35:32;;;;;;;7.82;3.00;;;;;;;-0.84;81.02;96826.34;4957819;29;20268;-56
2021/12/01 08:38:17;;;;;;;4.53;2.92;;;;;;;-0.94;80.84;96824.84;4947510;29;20043;-56
2021/12/01 08:41:05;;;;;;;4.78;2.45;;;;;;;-1.36;80.99;96754.66;4956871;28;20094;-56
2021/12/01 08:43:51;;;;;;;7.97;2.88;;;;;;;-0.80;81.83;96827.91;4959318;29;20046;-57
2021/12/01 08:46:37;;;;;;;4.32;2.80;;;;;;;-1.04;80.90;96821.69;4961616;29;20027;-57
2021/12/01 08:49:23;;;;;;;3.80;2.80;;;;;;;-1.16;80.94;96819.41;4944474;28;20031;-56
2021/12/01 08:52:10;;;;;;;6.05;2.97;;;;;;;-0.99;81.04;96822.41;4961216;29;20035;-57
2021/12/01 08:54:56;;;;;;;5.10;2.58;;;;;;;-1.01;81.02;96820.78;4943008;29;20027;-57
2021/12/01 08:57:42;;;;;;;6.07;2.67;;;;;;;-0.98;81.53;96824.09;4961003;29;20031;-57
2021/12/01 09:00:33;;;;;;;3.58;2.38;;;;;;;-1.30;81.27;96759.59;4960117;28;20031;-57
2021/12/01 09:03:19;;;;;;;4.55;2.60;;;;;;;-0.87;81.11;96831.47;4945293;28;20355;-58
2021/12/01 09:06:05;;;;;;;6.10;2.90;;;;;;;-0.71;80.88;96837.06;4961094;29;20039;-57
2021/12/01 09:08:51;;;;;;;6.00;2.95;;;;;;;-0.62;80.58;96834.28;4945951;28;20340;-58
2021/12/01 09:11:37;;;;;;;3.70;3.10;;;;;;;-0.58;81.13;96830.81;4944608;29;20063;-57
2021/12/01 09:14:24;;;;;;;4.30;2.60;;;;;;;-0.74;79.97;96826.94;4945220;29;20049;-57
2021/12/01 09:17:12;;;;;;;5.45;2.97;;;;;;;-0.65;80.92;96841.16;4959819;29;20027;-58
2021/12/01 09:19:58;;;;;;;3.90;2.45;;;;;;;-0.85;80.33;96847.53;4946404;29;20070;-57
2021/12/01 09:22:44;;;;;;;5.97;2.90;;;;;;;-0.66;80.47;96847.94;4960605;29;20034;-57
2021/12/01 09:25:30;;;;;;;4.57;2.90;;;;;;;-0.61;81.02;96847.84;4959365;29;20038;-57
2021/12/01 09:28:22;;;;;;;5.32;3.20;;;;;;;-0.82;80.03;96867.78;4961006;29;20199;-58
2021/12/01 09:31:08;;;;;;;;;;;;;;;-0.97;81.38;96853.72;4960861;29;20047;-57
2021/12/01 09:33:55;;;;;;;7.95;2.80;;;;;;;-0.99;80.66;96862.22;4961771;28;19961;-57
2021/12/01 09:36:41;;;;;;;6.50;2.95;;;;;;;-1.04;81.10;96859.78;4960552;29;20248;-57
2021/12/01 09:39:27;;;;;;;5.55;3.05;;;;;;;-0.90;81.77;96867.97;4952498;29;20071;-57
2021/12/01 09:42:13;;;;;;;4.57;2.38;;;;;;;-0.77;81.20;96868.53;4945175;29;20039;-60
2021/12/01 09:44:59;;;;;;;4.10;2.83;;;;;;;-0.81;81.58;96866.06;4950464;29;20031;-56
2021/12/01 09:47:45;;;;;;;5.05;3.30;;;;;;;-0.90;79.91;96872.19;4960420;28;20079;-57
2021/12/01 09:50:31;;;;;;;5.90;2.75;;;;;;;-0.93;81.65;96874.78;4961251;29;20059;-57
2021/12/01 09:53:17;;;;;;;7.18;2.97;;;;;;;-0.96;80.98;96872.31;4960526;28;20039;-58
2021/12/01 09:56:04;;;;;;;4.28;2.90;;;;;;;-1.02;81.59;96875.81;4962794;29;20086;-56
2021/12/01 09:58:50;;;;;;;5.10;3.00;;;;;;;-0.96;81.64;96868.06;4963160;29;20047;-56
2021/12/01 10:01:36;;;;;;;3.72;2.88;;;;;;;-0.90;81.22;96867.97;4962943;28;20086;-56
2021/12/01 10:04:24;;;;;;;4.82;2.97;;;;;;;-0.87;80.94;96882.28;4958472;28;20054;-57
2021/12/01 10:07:18;;;;;;;4.88;2.75;;;;;;;-1.15;80.52;96846.50;4950122;28;20067;-56
2021/12/01 10:10:08;;;;;;;5.50;2.70;;;;;;;-1.48;80.79;96826.84;4959777;29;20034;-56
2021/12/01 10:12:56;;;;;;;4.25;2.85;;;;;;;-0.90;80.24;96893.34;4949373;29;20031;-57
2021/12/01 10:15:42;;;;;;;3.08;2.65;;;;;;;-1.00;80.66;96896.09;4963136;29;20126;-56
2021/12/01 10:18:29;;;;;;;4.65;2.80;;;;;;;-0.95;79.97;96889.25;4961932;29;20078;-56
2021/12/01 10:21:17;;;;;;;4.43;2.90;;;;;;;-0.96;81.24;96887.56;4962962;29;20031;-57
2021/12/01 10:24:10;;;;;;;7.35;2.80;;;;;;;-0.87;81.18;96888.22;4963385;29;20030;-57
2021/12/01 10:27:02;;;;;;;4.93;2.70;;;;;;;-1.06;80.14;96892.00;4964013;29;20035;-57
2021/12/01 10:29:49;;;;;;;4.32;2.80;;;;;;;-1.19;80.49;96893.13;4963613;29;20043;-56
2021/12/01 10:32:35;;;;;;;4.90;2.97;;;;;;;-1.14;79.15;96894.69;4961822;29;20023;-57
2021/12/01 10:35:35;;;;;;;2.65;2.10;;;;;;;-1.31;78.55;96906.88;4948328;28;20402;-57
2021/12/01 10:38:30;;;;;;;5.43;2.53;;;;;;;-1.69;80.18;96835.69;4956285;28;20039;-57
2021/12/01 10:41:16;;;;;;;4.30;2.35;;;;;;;-1.57;79.13;96903.97;4963796;29;20150;-56
2021/12/01 10:44:32;;;;;;;3.15;2.10;;;;;;;-1.53;79.48;96914.06;4963946;29;20031;-57
2021/12/01 10:47:17;;;;;;;3.70;1.90;;;;;;;-1.71;78.84;96913.53;4952076;29;20047;-57
2021/12/01 10:50:04;;;;;;;2.83;1.90;;;;;;;-1.62;78.94;96920.16;4961123;29;20038;-57
2021/12/01 10:52:53;;;;;;;7.53;2.08;;;;;;;-1.49;77.81;96926.66;4962462;29;20167;-56
2021/12/01 10:55:45;;;;;;;4.05;2.17;;;;;;;-1.77;79.11;96883.19;4951938;29;20388;-56
2021/12/01 10:58:39;;;;;;;3.42;2.05;;;;;;;-1.98;78.86;96849.75;4958595;29;20030;-56
2021/12/01 11:01:25;;;;;;;3.60;2.47;;;;;;;-1.46;78.85;96920.69;4963412;29;20039;-57
2021/12/01 11:04:12;;;;;;;3.40;2.28;;;;;;;-1.63;79.30;96913.38;4954067;28;20098;-57
2021/12/01 11:06:58;;;;;;;3.75;2.47;;;;;;;-1.54;79.69;96899.69;4947932;29;20034;-57
2021/12/01 11:09:44;;;;;;;4.28;2.33;;;;;;;-1.55;79.51;96926.78;4962226;29;20058;-57
2021/12/01 11:12:29;;;;;;;3.20;2.25;;;;;;;-1.58;78.55;96921.75;4948304;29;20042;-57
2021/12/01 11:15:18;;;;;;;3.20;2.25;;;;;;;-1.52;78.14;96930.97;4963341;29;20027;-57
2021/12/01 11:18:06;;;;;;;6.20;2.72;;;;;;;-1.84;79.92;96907.00;4958973;29;20074;-57
2021/12/01 11:20:58;;;;;;;3.15;2.17;;;;;;;-1.53;81.07;96936.91;4963624;28;20055;-56
2021/12/01 11:23:47;;;;;;;6.47;2.60;;;;;;;-1.52;79.33;96936.88;4960046;28;20384;-57
2021/12/01 11:26:34;;;;;;;3.22;2.00;;;;;;;-1.53;78.91;96929.28;4946813;28;20425;-57
2021/12/01 11:29:22;;;;;;;3.45;2.10;;;;;;;-1.45;77.67;96935.06;4946521;29;20035;-57
2021/12/01 11:32:08;;;;;;;3.08;2.20;;;;;;;-1.45;79.68;96933.34;4944696;29;20054;-57
2021/12/01 11:34:54;;;;;;;2.22;1.85;;;;;;;-1.66;79.64;96921.06;4962966;29;20030;-56
2021/12/01 11:37:41;;;;;;;4.53;2.15;;;;;;;-1.59;79.09;96951.34;4961566;29;20248;-57
2021/12/01 11:40:29;;;;;;;8.20;1.95;;;;;;;-1.55;78.36;96939.47;4960298;29;20151;-57
2021/12/01 11:43:17;;;;;;;7.93;2.45;;;;;;;-1.39;77.82;96945.94;4961719;29;20324;-57
2021/12/01 11:46:07;;;;;;;5.38;2.25;;;;;;;-1.46;77.51;96953.69;4954080;29;20033;-57
2021/12/01 11:48:57;;;;;;;2.05;1.73;;;;;;;-1.52;76.13;96954.63;4962676;29;20320;-57
2021/12/01 11:51:54;;;;;;;5.38;2.28;;;;;;;-1.80;75.70;96903.53;4961940;28;20067;-57
2021/12/01 11:54:45;;;;;;;2.33;1.80;;;;;;;-1.44;75.86;96957.03;4947144;29;20399;-56
2021/12/01 11:57:39;;;;;;;2.83;2.00;;;;;;;-1.46;74.39;96972.28;4952964;29;20050;-57
2021/12/01 12:00:45;;;;;;;5.25;2.15;;;;;;;-1.43;73.57;96962.06;4961796;29;20313;-57
2021/12/01 12:03:31;;;;;;;3.15;2.17;;;;;;;-1.51;72.76;96975.75;4948111;29;20210;-57
2021/12/01 12:06:32;;;;;;;5.53;2.08;;;;;;;-1.89;73.79;96908.78;4946278;29;20091;-57
2021/12/01 12:09:22;;;;;;;2.45;1.60;;;;;;;-1.48;72.15;96965.56;4961430;29;20467;-56
2021/12/01 12:12:19;;;;;;;3.30;1.80;;;;;;;-1.29;73.17;96979.59;4962099;29;20348;-56
2021/12/01 12:15:06;;;;;;;4.20;1.52;;;;;;;-1.33;72.14;96993.19;4962311;28;20031;-57
2021/12/01 12:17:52;;;;;;;3.25;1.88;;;;;;;-1.40;71.10;96989.09;4960832;29;20046;-57
2021/12/01 12:20:53;;;;;;;5.30;1.70;;;;;;;-1.62;71.48;96998.81;4945176;29;20348;-57
2021/12/01 12:23:39;;;;;;;3.00;1.67;;;;;;;-1.51;70.38;97002.00;4960894;29;20038;-57
2021/12/01 12:26:38;;;;;;;2.67;2.00;;;;;;;-1.98;71.91;96940.19;4948497;29;20037;-57
2021/12/01 12:29:26;;;;;;;4.68;2.00;;;;;;;-1.81;71.11;96950.91;4961212;29;20138;-57
2021/12/01 12:32:21;;;;;;;4.28;2.33;;;;;;;-1.36;73.08;97027.97;4959216;29;20047;-57
2021/12/01 12:35:16;;;;;;;3.63;1.90;;;;;;;-1.37;72.36;97028.81;4959620;29;20113;-57
2021/12/01 12:38:08;;;;;;;3.90;2.20;;;;;;;-1.51;73.05;97007.06;4954442;29;20040;-57
2021/12/01 12:41:01;;;;;;;3.28;2.08;;;;;;;-1.98;72.94;96953.72;4955346;29;20058;-57
2021/12/01 12:43:48;;;;;;;2.38;1.60;;;;;;;-1.66;71.69;97027.63;4959262;29;20336;-58
2021/12/01 12:46:33;;;;;;;2.83;1.88;;;;;;;-1.51;73.06;97029.06;4958355;29;20222;-56
2021/12/01 12:49:39;;;;;;;3.20;2.17;;;;;;;-1.99;73.69;96963.88;4960310;29;20332;-57
2021/12/01 12:52:25;;;;;;;2.72;1.70;;;;;;;-1.52;72.95;97029.94;4959739;28;20023;-57
2021/12/01 12:55:23;;;;;;;4.90;1.90;;;;;;;-1.53;73.75;97044.31;4961560;29;20372;-57
2021/12/01 12:58:14;;;;;;;7.18;2.35;;;;;;;-1.91;74.29;96970.50;4959904;29;20075;-57
2021/12/01 13:01:00;;;;;;;3.53;1.83;;;;;;;-1.40;74.27;97045.78;4948904;28;20091;-56
2021/12/01 13:03:46;;;;;;;2.58;1.90;;;;;;;-1.56;73.29;97052.81;4961106;28;20126;-57
2021/12/01 13:06:32;;;;;;;2.70;1.83;;;;;;;-1.62;74.20;97045.28;4944385;29;20028;-57
2021/12/01 13:09:21;;;;;;;2.33;1.85;;;;;;;-1.58;73.69;97052.00;4943931;29;20027;-58
2021/12/01 13:12:07;;;;;;;3.13;2.25;;;;;;;-1.52;74.60;97060.38;4955076;29;20030;-58
2021/12/01 13:14:52;;;;;;;3.75;1.92;;;;;;;-1.48;74.54;97056.91;4960682;28;20106;-57